createdAt,value
2017-11-30T00:01:10.056Z,12.45
2017-11-30T00:03:38.343Z,12.35
2017-11-30T00:06:06.640Z,12.25
2017-11-30T00:08:35.717Z,13.77
2017-11-30T00:11:03.962Z,15.60
2017-11-30T00:13:32.244Z,14.00
2017-11-30T00:16:00.501Z,15.50
2017-11-30T00:18:28.774Z,14.40
2017-11-30T00:20:57.778Z,12.93
2017-11-30T00:23:26.083Z,14.40
2017-11-30T00:25:54.350Z,13.93
2017-11-30T00:28:22.644Z,14.65
2017-11-30T00:30:50.911Z,13.95
2017-11-30T00:33:19.191Z,13.80
2017-11-30T00:35:47.467Z,13.77
2017-11-30T00:38:15.747Z,12.70
2017-11-30T00:40:44.018Z,14.77
2017-11-30T00:43:24.812Z,14.80
2017-11-30T00:45:53.077Z,14.87
2017-11-30T00:48:21.372Z,15.05
2017-11-30T00:50:49.624Z,13.73
2017-11-30T00:53:18.656Z,14.67
2017-11-30T00:55:46.925Z,14.63
2017-11-30T00:58:15.180Z,15.17
2017-11-30T01:00:44.235Z,16.17
2017-11-30T01:03:12.497Z,15.03
2017-11-30T01:05:40.776Z,14.77
2017-11-30T01:08:09.038Z,18.23
2017-11-30T01:10:37.303Z,15.85
2017-11-30T01:13:06.320Z,16.20
2017-11-30T01:15:34.599Z,15.40
2017-11-30T01:18:02.848Z,17.77
2017-11-30T01:20:31.886Z,16.98
2017-11-30T01:23:00.136Z,17.10
2017-11-30T01:25:29.186Z,17.50
2017-11-30T01:27:57.472Z,16.50
2017-11-30T01:30:25.748Z,17.37
2017-11-30T01:32:54.008Z,16.30
2017-11-30T01:35:22.299Z,18.27
2017-11-30T01:37:50.560Z,17.30
2017-11-30T01:40:18.832Z,17.53
2017-11-30T01:42:47.087Z,18.73
2017-11-30T01:45:16.127Z,15.95
2017-11-30T01:47:44.440Z,19.40
2017-11-30T01:50:12.748Z,16.92
2017-11-30T01:52:40.979Z,16.05
2017-11-30T01:55:09.284Z,15.23
2017-11-30T01:57:37.552Z,15.83
2017-11-30T02:00:05.844Z,16.45
2017-11-30T02:02:34.116Z,17.40
2017-11-30T02:05:02.409Z,18.07
2017-11-30T02:07:30.668Z,15.57
2017-11-30T02:09:59.920Z,15.50
2017-11-30T02:12:28.165Z,14.80
2017-11-30T02:14:56.434Z,15.20
2017-11-30T02:17:24.726Z,13.30
2017-11-30T02:19:52.987Z,15.60
2017-11-30T02:22:21.273Z,16.13
2017-11-30T02:24:49.600Z,16.45
2017-11-30T02:27:17.837Z,17.00
2017-11-30T02:29:46.108Z,16.90
2017-11-30T02:32:14.370Z,16.92
2017-11-30T02:34:43.418Z,17.40
2017-11-30T02:37:11.694Z,18.33
2017-11-30T02:39:39.962Z,16.90
2017-11-30T02:42:08.309Z,17.48
2017-11-30T02:44:37.353Z,18.33
2017-11-30T02:47:05.635Z,17.10
2017-11-30T02:49:34.013Z,16.98
2017-11-30T02:52:02.287Z,17.23
2017-11-30T02:54:30.598Z,17.30
2017-11-30T02:56:58.840Z,17.02
2017-11-30T02:59:27.116Z,15.10
2017-11-30T03:01:55.394Z,17.67
2017-11-30T03:04:23.667Z,17.35
2017-11-30T03:06:52.688Z,16.87
2017-11-30T03:09:20.971Z,15.27
2017-11-30T03:11:49.261Z,17.87
2017-11-30T03:14:17.661Z,16.30
2017-11-30T03:16:45.912Z,17.35
2017-11-30T03:19:14.182Z,19.37
2017-11-30T03:21:42.437Z,18.60
2017-11-30T03:24:10.707Z,18.17
2017-11-30T03:26:38.961Z,17.00
2017-11-30T03:29:07.216Z,17.80
2017-11-30T03:31:35.612Z,17.20
2017-11-30T03:34:03.869Z,17.40
2017-11-30T03:36:32.160Z,18.12
2017-11-30T03:39:00.424Z,18.60
2017-11-30T03:41:28.720Z,17.10
2017-11-30T03:43:57.021Z,16.67
2017-11-30T03:46:25.277Z,15.05
2017-11-30T03:48:53.540Z,16.98
2017-11-30T03:51:21.813Z,17.48
2017-11-30T03:53:50.093Z,15.43
2017-11-30T03:56:18.368Z,16.20
2017-11-30T03:58:46.627Z,17.43
2017-11-30T04:01:15.672Z,19.33
2017-11-30T04:03:43.932Z,16.70
2017-11-30T04:06:12.212Z,15.95
2017-11-30T04:08:40.485Z,17.42
2017-11-30T04:11:09.525Z,17.00
2017-11-30T04:13:37.783Z,19.12
2017-11-30T04:16:06.058Z,18.15
2017-11-30T04:18:34.312Z,17.55
2017-11-30T04:21:03.344Z,18.23
2017-11-30T04:23:31.604Z,19.45
2017-11-30T04:25:59.880Z,17.58
2017-11-30T04:28:28.926Z,16.40
2017-11-30T04:30:57.191Z,18.60
2017-11-30T04:33:25.451Z,17.17
2017-11-30T04:35:53.728Z,20.02
2017-11-30T04:38:22.007Z,16.87
2017-11-30T04:40:51.073Z,18.43
2017-11-30T04:43:19.318Z,18.23
2017-11-30T04:45:47.603Z,19.00
2017-11-30T04:48:15.873Z,16.80
2017-11-30T04:50:44.159Z,17.50
2017-11-30T04:53:12.414Z,16.53
2017-11-30T04:55:40.685Z,17.87
2017-11-30T04:58:08.949Z,16.98
2017-11-30T05:00:38.004Z,19.73
2017-11-30T05:03:06.245Z,17.23
2017-11-30T05:05:34.561Z,16.97
2017-11-30T05:08:03.213Z,18.80
2017-11-30T05:10:31.504Z,17.97
2017-11-30T05:12:59.771Z,16.77
2017-11-30T05:15:28.044Z,16.23
2017-11-30T05:17:57.079Z,18.73
2017-11-30T05:20:25.353Z,18.87
2017-11-30T05:22:53.612Z,18.25
2017-11-30T05:25:22.639Z,18.53
2017-11-30T05:27:50.902Z,15.90
2017-11-30T05:30:19.173Z,17.13
2017-11-30T05:32:47.430Z,18.83
2017-11-30T05:35:16.469Z,19.57
2017-11-30T05:37:44.726Z,18.50
2017-11-30T05:40:12.995Z,18.60
2017-11-30T05:42:42.043Z,17.00
2017-11-30T05:45:10.324Z,18.12
2017-11-30T05:47:38.582Z,18.62
2017-11-30T05:50:06.872Z,19.05
2017-11-30T05:52:35.129Z,17.75
2017-11-30T05:55:03.402Z,18.07
2017-11-30T05:57:32.612Z,18.20
2017-11-30T06:00:00.944Z,17.75
2017-11-30T06:02:29.195Z,17.60
2017-11-30T06:04:57.493Z,18.90
2017-11-30T06:07:25.781Z,18.10
2017-11-30T06:09:54.060Z,15.27
2017-11-30T06:12:22.316Z,18.60
2017-11-30T06:14:50.643Z,17.40
2017-11-30T06:17:18.993Z,18.27
2017-11-30T06:19:47.253Z,19.12
2017-11-30T06:22:15.526Z,18.70
2017-11-30T06:24:43.784Z,16.95
2017-11-30T06:27:12.812Z,17.37
2017-11-30T06:29:41.063Z,16.70
2017-11-30T06:32:09.337Z,17.57
2017-11-30T06:34:38.381Z,17.23
2017-11-30T06:37:06.754Z,17.98
2017-11-30T06:39:35.012Z,17.08
2017-11-30T06:42:03.360Z,16.60
2017-11-30T06:44:31.628Z,16.48
2017-11-30T06:47:04.920Z,17.02
2017-11-30T06:49:33.237Z,16.65
2017-11-30T06:52:02.272Z,18.43
2017-11-30T06:54:30.567Z,17.73
2017-11-30T06:56:58.836Z,17.63
2017-11-30T06:59:27.133Z,18.43
2017-11-30T07:01:55.415Z,16.83
2017-11-30T07:04:23.687Z,17.50
2017-11-30T07:06:51.951Z,17.90
2017-11-30T07:09:20.255Z,17.87
2017-11-30T07:11:48.669Z,16.75
2017-11-30T07:14:16.946Z,16.17
2017-11-30T07:16:45.289Z,16.35
2017-11-30T07:19:13.570Z,18.45
2017-11-30T07:21:41.844Z,17.00
2017-11-30T07:24:10.101Z,20.00
2017-11-30T07:26:38.437Z,19.17
2017-11-30T07:29:06.743Z,18.80
2017-11-30T07:31:35.190Z,17.55
2017-11-30T07:34:03.453Z,17.73
2017-11-30T07:36:31.728Z,17.63
2017-11-30T07:39:00.033Z,16.55
2017-11-30T07:41:28.441Z,16.52
2017-11-30T07:43:56.680Z,18.20
2017-11-30T07:46:24.944Z,16.87
2017-11-30T07:48:54.144Z,14.85
2017-11-30T07:51:22.411Z,15.65
2017-11-30T07:53:50.679Z,15.95
2017-11-30T07:56:19.733Z,15.68
2017-11-30T07:58:47.979Z,14.10
2017-11-30T08:01:16.257Z,16.92
2017-11-30T08:03:45.284Z,17.20
2017-11-30T08:06:13.563Z,14.33
2017-11-30T08:08:41.806Z,16.40
2017-11-30T08:11:10.864Z,15.13
2017-11-30T08:13:39.955Z,15.27
2017-11-30T08:16:08.215Z,14.60
2017-11-30T08:18:36.468Z,15.63
2017-11-30T08:21:05.615Z,16.13
2017-11-30T08:23:33.868Z,14.33
2017-11-30T08:26:02.146Z,15.10
2017-11-30T08:28:30.436Z,14.70
2017-11-30T08:30:58.758Z,15.17
2017-11-30T08:33:27.012Z,14.90
2017-11-30T08:35:55.274Z,15.50
2017-11-30T08:38:24.300Z,15.60
2017-11-30T08:40:52.567Z,14.67
2017-11-30T08:43:20.821Z,17.60
2017-11-30T08:45:49.090Z,15.10
2017-11-30T08:48:18.101Z,16.17
2017-11-30T08:50:46.363Z,15.33
2017-11-30T08:53:15.385Z,16.80
2017-11-30T08:55:43.651Z,16.63
2017-11-30T08:58:12.713Z,17.50
2017-11-30T09:00:41.209Z,17.73
2017-11-30T09:03:10.329Z,15.27
2017-11-30T09:05:39.006Z,15.80
2017-11-30T09:08:07.474Z,16.93
2017-11-30T09:10:36.576Z,16.20
2017-11-30T09:13:05.177Z,14.73
2017-11-30T09:15:35.243Z,15.77
2017-11-30T09:18:03.508Z,16.33
2017-11-30T09:20:31.776Z,16.37
2017-11-30T09:23:00.069Z,17.90
2017-11-30T09:25:29.098Z,17.13
2017-11-30T09:27:57.348Z,18.07
2017-11-30T09:30:25.600Z,17.00
2017-11-30T09:32:53.943Z,19.07
2017-11-30T09:35:22.193Z,18.10
2017-11-30T09:37:50.465Z,18.30
2017-11-30T09:40:18.716Z,19.20
2017-11-30T09:42:46.986Z,18.27
2017-11-30T09:45:15.252Z,20.30
2017-11-30T09:47:43.524Z,18.90
2017-11-30T09:50:11.781Z,16.93
2017-11-30T09:52:40.059Z,17.30
2017-11-30T09:55:08.351Z,17.20
2017-11-30T09:57:36.622Z,16.67
2017-11-30T10:00:04.883Z,17.70
2017-11-30T10:02:33.210Z,15.43
2017-11-30T10:05:01.518Z,15.77
2017-11-30T10:07:29.783Z,17.20
2017-11-30T10:09:58.069Z,15.07
2017-11-30T10:12:26.536Z,16.30
2017-11-30T10:14:54.781Z,16.30
2017-11-30T10:17:23.039Z,17.50
2017-11-30T10:19:52.103Z,16.93
2017-11-30T10:22:20.369Z,19.87
2017-11-30T10:24:49.138Z,20.07
2017-11-30T10:27:17.395Z,18.33
2017-11-30T10:29:46.532Z,19.50
2017-11-30T10:32:14.796Z,18.03
2017-11-30T10:34:43.062Z,19.17
2017-11-30T10:37:12.104Z,18.63
2017-11-30T10:39:44.176Z,19.23
2017-11-30T10:42:12.461Z,19.77
2017-11-30T10:44:42.029Z,19.83
2017-11-30T10:47:10.312Z,22.23
2017-11-30T10:49:38.567Z,20.30
2017-11-30T10:52:06.871Z,21.07
2017-11-30T10:54:35.129Z,21.30
2017-11-30T10:57:03.411Z,20.40
2017-11-30T10:59:32.708Z,21.20
2017-11-30T11:02:01.398Z,18.70
2017-11-30T11:04:30.005Z,19.50
2017-11-30T11:06:58.567Z,15.33
2017-11-30T11:09:27.780Z,16.40
2017-11-30T11:11:56.565Z,17.40
2017-11-30T11:14:25.104Z,18.50
2017-11-30T11:16:53.439Z,19.10
2017-11-30T11:19:21.686Z,16.93
2017-11-30T11:21:49.982Z,18.43
2017-11-30T11:24:18.256Z,18.50
2017-11-30T11:26:46.671Z,16.90
2017-11-30T11:29:15.012Z,17.60
2017-11-30T11:31:43.284Z,15.73
2017-11-30T11:34:14.712Z,17.40
2017-11-30T11:36:42.977Z,16.40
2017-11-30T11:39:12.286Z,14.07
2017-11-30T11:41:41.316Z,14.67
2017-11-30T11:44:09.555Z,15.13
2017-11-30T11:46:37.832Z,15.57
2017-11-30T11:49:06.087Z,16.90
2017-11-30T11:51:34.360Z,15.33
2017-11-30T11:54:02.655Z,15.23
2017-11-30T11:56:30.944Z,14.17
2017-11-30T11:58:59.205Z,13.90
2017-11-30T12:01:27.468Z,14.67
2017-11-30T12:03:55.894Z,16.43
2017-11-30T12:06:24.146Z,13.10
2017-11-30T12:08:52.406Z,14.53
2017-11-30T12:11:20.677Z,16.40
2017-11-30T12:13:48.985Z,13.53
2017-11-30T12:16:17.226Z,14.27
2017-11-30T12:18:45.557Z,12.90
2017-11-30T12:21:13.803Z,12.30
2017-11-30T12:23:42.071Z,14.47
2017-11-30T12:26:10.369Z,11.80
2017-11-30T12:28:38.645Z,12.73
2017-11-30T12:31:06.986Z,11.60
2017-11-30T12:33:35.234Z,10.37
2017-11-30T12:36:03.488Z,10.63
2017-11-30T12:38:31.788Z,11.60
2017-11-30T12:41:00.095Z,12.53
2017-11-30T12:43:28.347Z,13.37
2017-11-30T12:45:56.591Z,11.80
2017-11-30T12:48:25.619Z,12.93
2017-11-30T12:50:53.920Z,12.13
2017-11-30T12:53:22.186Z,14.13
2017-11-30T12:55:50.476Z,13.50
2017-11-30T12:58:18.751Z,12.97
2017-11-30T13:00:47.038Z,14.98
2017-11-30T13:03:15.307Z,15.57
2017-11-30T13:05:43.595Z,16.23
2017-11-30T13:08:11.866Z,14.63
2017-11-30T13:10:40.128Z,16.10
2017-11-30T13:13:08.405Z,16.00
2017-11-30T13:15:36.718Z,16.50
2017-11-30T13:18:04.986Z,16.17
2017-11-30T13:20:33.233Z,15.00
2017-11-30T13:23:02.302Z,15.90
2017-11-30T13:25:30.573Z,15.63
2017-11-30T13:27:59.053Z,13.40
2017-11-30T13:30:27.310Z,14.70
2017-11-30T13:32:55.690Z,15.13
2017-11-30T13:35:23.964Z,14.93
2017-11-30T13:37:52.220Z,15.83
2017-11-30T13:40:21.244Z,15.17
2017-11-30T13:42:49.514Z,16.03
2017-11-30T13:45:18.550Z,15.60
2017-11-30T13:47:46.831Z,15.30
2017-11-30T13:50:15.110Z,15.13
2017-11-30T13:52:43.395Z,14.67
2017-11-30T13:55:11.648Z,12.87
2017-11-30T13:57:39.989Z,14.03
2017-11-30T14:00:08.689Z,14.70
2017-11-30T14:02:37.033Z,13.73
2017-11-30T14:05:05.282Z,14.80
2017-11-30T14:07:33.579Z,15.67
2017-11-30T14:10:01.890Z,15.10
2017-11-30T14:12:30.154Z,14.60
2017-11-30T14:14:58.438Z,14.23
2017-11-30T14:17:26.719Z,14.00
2017-11-30T14:19:55.001Z,11.47
2017-11-30T14:22:23.263Z,13.13
2017-11-30T14:24:51.508Z,12.47
2017-11-30T14:27:19.778Z,13.33
2017-11-30T14:29:48.049Z,14.87
2017-11-30T14:32:16.411Z,13.80
2017-11-30T14:34:44.675Z,13.40
2017-11-30T14:37:12.947Z,12.93
2017-11-30T14:39:43.429Z,14.83
2017-11-30T14:42:13.312Z,15.70
2017-11-30T14:44:41.569Z,13.30
2017-11-30T14:47:09.843Z,13.03
2017-11-30T14:49:38.770Z,13.77
2017-11-30T14:52:07.039Z,13.47
2017-11-30T14:54:35.304Z,13.50
2017-11-30T14:57:03.603Z,14.43
2017-11-30T14:59:31.885Z,14.67
2017-11-30T15:02:00.139Z,12.25
2017-11-30T15:04:29.307Z,13.23
2017-11-30T15:06:57.566Z,11.73
2017-11-30T15:09:25.935Z,11.10
2017-11-30T15:11:54.248Z,13.50
2017-11-30T15:14:22.597Z,10.43
2017-11-30T15:16:50.847Z,12.23
2017-11-30T15:19:19.105Z,11.30
2017-11-30T15:21:48.167Z,11.23
2017-11-30T15:24:16.438Z,9.90
2017-11-30T15:26:44.722Z,10.07
2017-11-30T15:29:12.987Z,10.80
2017-11-30T15:31:41.243Z,10.60
2017-11-30T15:34:10.288Z,10.20
2017-11-30T15:36:38.666Z,11.07
2017-11-30T15:39:06.953Z,10.63
2017-11-30T15:41:35.217Z,9.83
2017-11-30T15:44:03.480Z,10.40
2017-11-30T15:46:31.744Z,11.07
2017-11-30T15:49:01.025Z,10.77
2017-11-30T15:51:29.279Z,11.87
2017-11-30T15:53:57.650Z,11.00
2017-11-30T15:56:25.938Z,10.93
2017-11-30T15:58:54.313Z,11.23
2017-11-30T16:01:22.586Z,11.07
2017-11-30T16:03:50.835Z,11.40
2017-11-30T16:06:19.952Z,11.40
2017-11-30T16:08:48.946Z,11.43
2017-11-30T16:11:17.217Z,13.40
2017-11-30T16:13:46.254Z,10.47
2017-11-30T16:16:14.519Z,11.53
2017-11-30T16:18:42.783Z,11.50
2017-11-30T16:21:11.088Z,11.00
2017-11-30T16:23:39.324Z,10.80
2017-11-30T16:26:08.415Z,12.33
2017-11-30T16:28:36.681Z,12.13
2017-11-30T16:31:05.002Z,11.23
2017-11-30T16:33:34.044Z,10.90
2017-11-30T16:36:02.322Z,12.70
2017-11-30T16:38:30.622Z,11.57
2017-11-30T16:40:58.883Z,11.37
2017-11-30T16:43:27.158Z,11.83
2017-11-30T16:45:55.415Z,12.57
2017-11-30T16:48:23.682Z,13.93
2017-11-30T16:50:52.715Z,13.63
2017-11-30T16:53:20.989Z,11.70
2017-11-30T16:55:49.264Z,10.83
2017-11-30T16:58:17.563Z,12.50
2017-11-30T17:00:45.816Z,11.97
2017-11-30T17:03:14.086Z,13.40
2017-11-30T17:05:43.106Z,11.90
2017-11-30T17:08:11.370Z,13.50
2017-11-30T17:10:40.399Z,12.57
2017-11-30T17:13:08.659Z,11.60
2017-11-30T17:15:36.914Z,11.93
2017-11-30T17:18:05.970Z,12.40
2017-11-30T17:20:34.203Z,11.87
2017-11-30T17:23:03.254Z,12.43
2017-11-30T17:25:31.578Z,11.80
2017-11-30T17:27:59.818Z,11.93
2017-11-30T17:30:28.480Z,11.80
2017-11-30T17:32:56.749Z,9.00
2017-11-30T17:35:24.990Z,9.63
2017-11-30T17:37:53.370Z,8.80
2017-11-30T17:40:21.626Z,8.10
2017-11-30T17:42:50.003Z,6.93
2017-11-30T17:45:18.253Z,7.90
2017-11-30T17:47:46.608Z,7.20
2017-11-30T17:50:16.355Z,6.43
2017-11-30T17:52:44.662Z,6.50
2017-11-30T17:55:12.926Z,6.85
2017-11-30T17:57:41.182Z,6.32
2017-11-30T18:00:10.205Z,8.33
2017-11-30T18:02:38.460Z,7.37
2017-11-30T18:05:08.216Z,6.67
2017-11-30T18:07:36.466Z,5.65
2017-11-30T18:10:04.742Z,5.72
2017-11-30T18:12:33.007Z,6.75
2017-11-30T18:15:02.026Z,6.90
2017-11-30T18:17:30.438Z,7.05
2017-11-30T18:19:58.713Z,7.50
2017-11-30T18:22:27.005Z,7.90
2017-11-30T18:24:55.237Z,8.05
2017-11-30T18:27:23.566Z,7.35
2017-11-30T18:29:51.846Z,7.60
2017-11-30T18:32:20.112Z,8.67
2017-11-30T18:34:48.376Z,8.75
2017-11-30T18:37:16.622Z,9.60
2017-11-30T18:39:45.670Z,8.37
2017-11-30T18:42:13.921Z,8.05
2017-11-30T18:44:42.939Z,9.10
2017-11-30T18:47:11.186Z,8.85
2017-11-30T18:49:40.268Z,9.30
2017-11-30T18:52:08.491Z,9.17
2017-11-30T18:54:36.781Z,9.23
2017-11-30T18:57:05.044Z,9.75
2017-11-30T18:59:33.310Z,9.20
2017-11-30T19:02:02.389Z,8.77
2017-11-30T19:04:30.659Z,9.65
2017-11-30T19:06:58.912Z,10.10
2017-11-30T19:09:27.177Z,9.27
2017-11-30T19:11:56.198Z,10.27
2017-11-30T19:14:24.473Z,9.25
2017-11-30T19:16:52.723Z,9.37
2017-11-30T19:19:20.986Z,10.17
2017-11-30T19:21:49.226Z,10.83
2017-11-30T19:24:17.494Z,10.80
2017-11-30T19:26:45.756Z,9.10
2017-11-30T19:29:14.707Z,9.27
2017-11-30T19:31:42.923Z,10.40
2017-11-30T19:34:11.198Z,8.37
2017-11-30T19:36:39.510Z,9.00
2017-11-30T19:39:07.782Z,7.50
2017-11-30T19:41:36.035Z,7.97
2017-11-30T19:44:05.064Z,6.60
2017-11-30T19:46:33.300Z,6.70
2017-11-30T19:49:02.331Z,6.07
2017-11-30T19:51:30.637Z,7.40
2017-11-30T19:53:59.002Z,6.40
2017-11-30T19:56:27.249Z,6.67
2017-11-30T19:58:56.280Z,6.83
2017-11-30T20:01:24.546Z,4.95
2017-11-30T20:03:52.830Z,5.82
2017-11-30T20:06:21.852Z,5.87
2017-11-30T20:08:50.099Z,5.78
2017-11-30T20:11:19.114Z,6.20
2017-11-30T20:13:47.359Z,5.68
2017-11-30T20:16:15.691Z,5.87
2017-11-30T20:18:43.939Z,6.40
2017-11-30T20:21:12.954Z,6.00
2017-11-30T20:23:41.203Z,6.40
2017-11-30T20:26:09.454Z,6.00
2017-11-30T20:28:37.693Z,5.60
2017-11-30T20:31:05.983Z,5.95
2017-11-30T20:33:34.267Z,6.30
2017-11-30T20:36:03.303Z,6.47
2017-11-30T20:38:31.616Z,7.30
2017-11-30T20:41:00.809Z,7.00
2017-11-30T20:43:29.833Z,7.00
2017-11-30T20:45:58.094Z,9.07
2017-11-30T20:48:27.143Z,8.10
2017-11-30T20:50:55.461Z,8.10
2017-11-30T20:53:24.471Z,8.40
2017-11-30T20:55:53.508Z,8.40
2017-11-30T20:58:21.756Z,8.67
2017-11-30T21:00:50.039Z,7.43
2017-11-30T21:03:19.044Z,7.93
2017-11-30T21:05:47.641Z,7.63
2017-11-30T21:08:15.936Z,7.97
2017-11-30T21:10:44.185Z,7.87
2017-11-30T21:13:12.506Z,7.57
2017-11-30T21:15:40.860Z,8.37
2017-11-30T21:18:09.058Z,8.80
2017-11-30T21:20:37.337Z,8.63
2017-11-30T21:23:05.592Z,8.63
2017-11-30T21:25:33.868Z,9.57
2017-11-30T21:28:02.183Z,9.40
2017-11-30T21:30:30.464Z,9.00
2017-11-30T21:32:58.710Z,8.52
2017-11-30T21:35:27.961Z,8.93
2017-11-30T21:37:56.214Z,8.83
2017-11-30T21:40:24.502Z,9.17
2017-11-30T21:42:52.783Z,8.35
2017-11-30T21:45:22.702Z,9.15
2017-11-30T21:47:50.970Z,9.03
2017-11-30T21:50:19.273Z,8.97
2017-11-30T21:52:47.526Z,8.60
2017-11-30T21:55:15.794Z,7.97
2017-11-30T21:57:44.111Z,7.80
2017-11-30T22:00:12.639Z,7.50
2017-11-30T22:02:41.320Z,7.37
2017-11-30T22:05:10.043Z,7.53
2017-11-30T22:07:38.362Z,7.90
2017-11-30T22:10:06.757Z,7.32
2017-11-30T22:12:35.015Z,8.02
2017-11-30T22:15:03.291Z,7.82
2017-11-30T22:17:31.882Z,8.32
2017-11-30T22:20:00.219Z,8.90
2017-11-30T22:22:28.445Z,7.60
2017-11-30T22:24:56.823Z,8.30
2017-11-30T22:27:25.070Z,8.10
2017-11-30T22:29:53.346Z,7.70
2017-11-30T22:32:22.422Z,8.33
2017-11-30T22:34:50.675Z,8.10
2017-11-30T22:37:18.922Z,9.35
2017-11-30T22:39:47.174Z,9.25
2017-11-30T22:42:15.431Z,8.17
2017-11-30T22:44:43.682Z,8.30
2017-11-30T22:47:11.950Z,8.30
2017-11-30T22:49:40.201Z,9.13
2017-11-30T22:52:09.260Z,8.50
2017-11-30T22:54:37.490Z,9.00
2017-11-30T22:57:06.522Z,8.95
2017-11-30T22:59:34.787Z,9.95
2017-11-30T23:02:03.110Z,9.38
2017-11-30T23:04:31.373Z,8.98
2017-11-30T23:06:59.662Z,9.80
2017-11-30T23:09:27.919Z,8.70
2017-11-30T23:11:56.250Z,9.25
2017-11-30T23:14:24.496Z,9.83
2017-11-30T23:16:52.745Z,9.03
2017-11-30T23:19:20.993Z,9.00
2017-11-30T23:21:49.256Z,9.45
2017-11-30T23:24:17.504Z,8.67
2017-11-30T23:26:45.769Z,8.67
2017-11-30T23:29:14.019Z,10.43
2017-11-30T23:31:43.158Z,10.55
2017-11-30T23:34:11.427Z,9.73
2017-11-30T23:36:39.693Z,9.10
2017-11-30T23:39:08.703Z,9.67
2017-11-30T23:41:36.983Z,10.25
2017-11-30T23:44:05.247Z,9.93
2017-11-30T23:46:35.775Z,10.18
2017-11-30T23:49:04.082Z,10.70
2017-11-30T23:51:32.405Z,10.23
2017-11-30T23:54:00.667Z,9.75
2017-11-30T23:56:28.935Z,10.77
2017-11-30T23:58:57.204Z,10.82
